Time;durP1;ratioP1;P1;durP2;ratioP2;P2;SDS_P1;SDS_P2;PMS_P1;PMS_P2;Temp;Humidity;BMP_temperature;BMP_pressure;BME280_temperature;BME280_humidity;BME280_pressure;Samples;Min_cycle;Max_cycle;Signal;HPM_P1;HPM_P2
2021/04/20 00:00:18;;;;;;;;;;;307.50;2099.20;;;;;;5054144;28;20007;-70
2021/04/20 00:02:44;;;;;;;;;;;282.50;2124.80;;;;;;5053995;28;19904;-63
2021/04/20 00:05:12;;;;;;;;;;;307.30;2124.80;;;;;;5041173;28;19943;-71
2021/04/20 00:07:37;;;;;;;;;;;307.40;2099.20;;;;;;5073807;28;19909;-63
2021/04/20 00:10:10;;;;;;;;;;;307.40;2124.80;;;;;;5073629;28;20318;-71
2021/04/20 00:12:36;;;;;;;;;;;307.30;2124.80;;;;;;5073726;28;19904;-71
2021/04/20 00:15:09;;;;;;;;;;;307.30;2124.80;;;;;;5073531;28;19919;-70
2021/04/20 00:17:35;;;;;;;;;;;307.30;2124.80;;;;;;5073571;28;19909;-71
2021/04/20 00:20:00;;;;;;;;;;;307.50;2099.20;;;;;;5071706;28;19904;-64
2021/04/20 00:22:26;;;;;;;;;;;307.50;2099.20;;;;;;5053597;28;19950;-70
2021/04/20 00:24:52;;;;;;;;;;;307.70;2048.00;;;;;;5053374;28;20373;-71
2021/04/20 00:27:17;;;;;;;;;;;307.80;2022.40;;;;;;5053472;28;20290;-70
2021/04/20 00:29:43;;;;;;;;;;;307.80;2022.40;;;;;;5065401;28;19905;-64
2021/04/20 00:32:08;;;;;;;;;;;307.80;2022.40;;;;;;5073365;28;19948;-71
2021/04/20 00:34:34;;;;;;;;;;;307.40;2073.60;;;;;;5073479;28;19998;-70
2021/04/20 00:36:59;;;;;;;;;;;307.20;2124.80;;;;;;5073434;28;19911;-69
2021/04/20 00:39:25;;;;;;;;;;;282.50;2099.20;;;;;;5072993;28;19915;-71
2021/04/20 00:42:03;;;;;;;;;;;307.30;2099.20;;;;;;5073354;28;20003;-71
2021/04/20 00:44:31;;;;;;;;;;;307.20;2124.80;;;;;;5039361;28;20358;-68
2021/04/20 00:46:57;;;;;;;;;;;282.50;2099.20;;;;;;5066893;28;19974;-71
2021/04/20 00:49:22;;;;;;;;;;;282.50;2099.20;;;;;;5058900;28;19908;-71
2021/04/20 00:51:49;;;;;;;;;;;282.50;2099.20;;;;;;5073014;28;19904;-71
2021/04/20 00:54:15;;;;;;;;;;;282.50;2099.20;;;;;;5072830;28;19921;-64
2021/04/20 00:56:40;;;;;;;;;;;307.20;2099.20;;;;;;5073005;28;19904;-71
2021/04/20 00:59:06;;;;;;;;;;;282.50;2073.60;;;;;;5073087;28;19904;-70
2021/04/20 01:01:32;;;;;;;;;;;307.20;2099.20;;;;;;5072831;28;19911;-63
2021/04/20 01:03:58;;;;;;;;;;;282.50;2099.20;;;;;;5072922;28;19970;-71
2021/04/20 01:06:23;;;;;;;;;;;307.20;2099.20;;;;;;5072643;28;20378;-70
2021/04/20 01:08:50;;;;;;;;;;;307.30;2073.60;;;;;;5072775;28;20447;-71
2021/04/20 01:11:15;;;;;;;;;;;307.20;2099.20;;;;;;5072870;28;19961;-71
2021/04/20 01:13:41;;;;;;;;;;;;;;;;;;5072587;28;20379;-70
2021/04/20 01:16:07;;;;;;;;;;;307.60;2022.40;;;;;;5072823;28;19928;-70
2021/04/20 01:18:35;;;;;;;;;;;307.60;2022.40;;;;;;5072777;28;20282;-69
2021/04/20 01:21:03;;;;;;;;;;;307.70;2022.40;;;;;;5072735;28;20420;-70
2021/04/20 01:23:35;;;;;;;;;;;307.70;2022.40;;;;;;5072480;28;19905;-71
2021/04/20 01:26:01;;;;;;;;;;;307.60;2022.40;;;;;;5072717;28;19958;-71
2021/04/20 01:28:26;;;;;;;;;;;307.40;2073.60;;;;;;5072968;28;19905;-70
2021/04/20 01:30:52;;;;;;;;;;;307.20;2073.60;;;;;;5072830;28;20401;-70
2021/04/20 01:33:17;;;;;;;;;;;282.50;2073.60;;;;;;5072800;28;20393;-70
2021/04/20 01:35:43;;;;;;;;;;;307.30;2073.60;;;;;;5054668;28;20336;-65
2021/04/20 01:38:08;;;;;;;;;;;307.30;2048.00;;;;;;5072460;28;19911;-71
2021/04/20 01:40:34;;;;;;;;;;;307.30;2048.00;;;;;;5054446;28;20441;-67
2021/04/20 01:43:00;;;;;;;;;;;307.50;2048.00;;;;;;5072574;28;19935;-70
2021/04/20 01:45:27;;;;;;;;;;;307.60;2022.40;;;;;;5072570;28;19904;-70
2021/04/20 01:47:53;;;;;;;;;;;307.70;1996.80;;;;;;5051309;28;19905;-70
2021/04/20 01:50:19;;;;;;;;;;;307.70;1996.80;;;;;;5061811;28;20411;-63
2021/04/20 01:52:44;;;;;;;;;;;307.70;1996.80;;;;;;5072783;28;19908;-69
2021/04/20 01:55:11;;;;;;;;;;;307.80;1996.80;;;;;;5072197;28;19966;-70
2021/04/20 01:57:36;;;;;;;;;;;307.70;1996.80;;;;;;5072306;28;19909;-70
2021/04/20 02:00:06;;;;;;;;;;;307.70;1996.80;;;;;;5072247;28;19911;-65
2021/04/20 02:02:32;;;;;;;;;;;307.70;1996.80;;;;;;5072271;28;19904;-71
2021/04/20 02:04:58;;;;;;;;;;;307.70;1996.80;;;;;;5072173;28;20290;-70
2021/04/20 02:07:23;;;;;;;;;;;307.70;1996.80;;;;;;5054412;28;19905;-71
2021/04/20 02:09:49;;;;;;;;;;;307.70;1996.80;;;;;;5071878;28;20350;-71
2021/04/20 02:12:14;;;;;;;;;;;307.70;1996.80;;;;;;5072240;28;20020;-71
2021/04/20 02:14:40;;;;;;;;;;;307.80;1996.80;;;;;;5053737;28;20340;-71
2021/04/20 02:17:06;;;;;;;;;;;307.70;1996.80;;;;;;5072140;28;20263;-71
2021/04/20 02:19:31;;;;;;;;;;;307.70;1996.80;;;;;;5072247;28;20339;-72
2021/04/20 02:21:57;;;;;;;;;;;307.60;2022.40;;;;;;5060157;28;19940;-70
2021/04/20 02:24:23;;;;;;;;;;;307.60;2022.40;;;;;;5075736;28;19912;-70
2021/04/20 02:26:49;;;;;;;;;;;307.30;2048.00;;;;;;5076034;28;19904;-64
2021/04/20 02:29:14;;;;;;;;;;;307.30;2073.60;;;;;;5075916;28;19915;-70
2021/04/20 02:31:41;;;;;;;;;;;307.30;2048.00;;;;;;5075732;28;19905;-70
2021/04/20 02:34:07;;;;;;;;;;;307.20;2073.60;;;;;;5047707;28;19927;-64
2021/04/20 02:36:39;;;;;;;;;;;307.30;2073.60;;;;;;5076072;28;19904;-70
2021/04/20 02:39:06;;;;;;;;;;;307.20;2073.60;;;;;;5075281;28;19908;-70
2021/04/20 02:41:31;;;;;;;;;;;307.20;2099.20;;;;;;5075846;28;19904;-71
2021/04/20 02:43:58;;;;;;;;;;;307.30;2073.60;;;;;;5075276;28;20347;-70
2021/04/20 02:46:24;;;;;;;;;;;307.20;2073.60;;;;;;5075475;28;19993;-63
2021/04/20 02:48:50;;;;;;;;;;;282.40;2073.60;;;;;;5064077;28;19905;-63
2021/04/20 02:51:16;;;;;;;;;;;282.50;2073.60;;;;;;5072581;28;19908;-64
2021/04/20 02:53:43;;;;;;;;;;;307.30;2073.60;;;;;;5075263;28;19924;-70
2021/04/20 02:56:11;;;;;;;;;;;307.50;2048.00;;;;;;5057138;28;19911;-70
2021/04/20 02:58:36;;;;;;;;;;;307.50;2048.00;;;;;;5075565;28;19904;-70
2021/04/20 03:01:04;;;;;;;;;;;307.50;2048.00;;;;;;5057426;28;19904;-64
2021/04/20 03:03:33;;;;;;;;;;;307.20;2073.60;;;;;;5057122;28;19905;-70
2021/04/20 03:06:02;;;;;;;;;;;307.40;2048.00;;;;;;5074950;28;19970;-70
2021/04/20 03:08:29;;;;;;;;;;;307.40;2048.00;;;;;;5074757;28;20370;-70
2021/04/20 03:10:56;;;;;;;;;;;307.40;2048.00;;;;;;5075094;28;19915;-70
2021/04/20 03:13:22;;;;;;;;;;;307.30;2073.60;;;;;;5074878;28;19974;-71
2021/04/20 03:15:48;;;;;;;;;;;307.20;2073.60;;;;;;5075126;28;19904;-70
2021/04/20 03:18:13;;;;;;;;;;;307.30;2073.60;;;;;;5074765;28;19904;-70
2021/04/20 03:20:39;;;;;;;;;;;282.50;2048.00;;;;;;5074928;28;19904;-65
2021/04/20 03:23:04;;;;;;;;;;;307.30;2048.00;;;;;;5074816;28;19904;-71
2021/04/20 03:25:34;;;;;;;;;;;307.30;2073.60;;;;;;5074458;28;19916;-70
2021/04/20 03:28:00;;;;;;;;;;;307.60;2022.40;;;;;;5074733;28;20270;-70
2021/04/20 03:30:26;;;;;;;;;;;307.70;1996.80;;;;;;5074548;28;19915;-69
2021/04/20 03:32:55;;;;;;;;;;;307.70;1996.80;;;;;;5073551;28;19911;-65
2021/04/20 03:35:26;;;;;;;;;;;307.70;1996.80;;;;;;5074717;28;19923;-64
2021/04/20 03:37:56;;;;;;;;;;;307.60;2022.40;;;;;;5056511;28;19931;-64
2021/04/20 03:40:23;;;;;;;;;;;307.60;2022.40;;;;;;5074251;28;20001;-71
2021/04/20 03:42:52;;;;;;;;;;;307.60;2048.00;;;;;;5074409;28;19908;-70
2021/04/20 03:45:20;;;;;;;;;;;307.60;2048.00;;;;;;5074458;28;19958;-69
2021/04/20 03:47:48;;;;;;;;;;;307.40;2073.60;;;;;;5044505;28;19909;-64
2021/04/20 03:50:25;;;;;;;;;;;307.40;2073.60;;;;;;5062879;28;20354;-70
2021/04/20 03:52:56;;;;;;;;;;;307.40;2073.60;;;;;;5073929;28;19954;-70
2021/04/20 03:55:23;;;;;;;;;;;307.40;2073.60;;;;;;5073980;28;19917;-70
2021/04/20 03:57:49;;;;;;;;;;;307.60;2048.00;;;;;;5056139;28;19927;-67
2021/04/20 04:00:16;;;;;;;;;;;307.50;2048.00;;;;;;5074024;28;20362;-70
2021/04/20 04:02:43;;;;;;;;;;;307.30;2073.60;;;;;;5055987;28;20325;-71
2021/04/20 04:05:11;;;;;;;;;;;307.30;2073.60;;;;;;5073612;28;19969;-69
2021/04/20 04:07:37;;;;;;;;;;;307.50;2048.00;;;;;;5074108;28;19909;-70
2021/04/20 04:10:04;;;;;;;;;;;307.50;2048.00;;;;;;5073377;28;19911;-70
2021/04/20 04:12:34;;;;;;;;;;;307.50;2022.40;;;;;;5073719;28;19905;-70
2021/04/20 04:15:00;;;;;;;;;;;307.60;2022.40;;;;;;5073815;28;20274;-70
2021/04/20 04:17:27;;;;;;;;;;;307.60;2022.40;;;;;;5073671;28;19908;-70
2021/04/20 04:19:53;;;;;;;;;;;307.80;1996.80;;;;;;5073755;28;19904;-70
2021/04/20 04:22:19;;;;;;;;;;;307.80;1996.80;;;;;;5073904;28;20266;-70
2021/04/20 04:24:54;;;;;;;;;;;307.80;1996.80;;;;;;5073502;28;19908;-63
2021/04/20 04:27:25;;;;;;;;;;;307.50;2048.00;;;;;;5021876;28;19909;-70
2021/04/20 04:29:52;;;;;;;;;;;307.30;2073.60;;;;;;5066250;28;19927;-70
2021/04/20 04:32:18;;;;;;;;;;;307.40;2048.00;;;;;;5073359;28;19958;-71
2021/04/20 04:34:44;;;;;;;;;;;307.50;2048.00;;;;;;5073357;28;19980;-70
2021/04/20 04:37:10;;;;;;;;;;;307.30;2073.60;;;;;;5073138;28;20286;-71
2021/04/20 04:39:36;;;;;;;;;;;307.40;2048.00;;;;;;5073084;28;19915;-70
2021/04/20 04:42:02;;;;;;;;;;;282.50;2073.60;;;;;;5073221;28;19937;-70
2021/04/20 04:44:27;;;;;;;;;;;307.20;2099.20;;;;;;5072981;28;19904;-70
2021/04/20 04:46:53;;;;;;;;;;;307.20;2099.20;;;;;;5073180;28;19969;-64
2021/04/20 04:49:20;;;;;;;;;;;307.30;2073.60;;;;;;5058740;28;19991;-70
2021/04/20 04:51:47;;;;;;;;;;;282.50;2073.60;;;;;;5073100;28;19908;-70
2021/04/20 04:54:13;;;;;;;;;;;307.20;2099.20;;;;;;5073072;28;19912;-63
2021/04/20 04:56:40;;;;;;;;;;;307.30;2073.60;;;;;;5073071;28;19999;-71
2021/04/20 04:59:06;;;;;;;;;;;307.20;2073.60;;;;;;5072870;28;19912;-70
2021/04/20 05:01:32;;;;;;;;;;;307.30;2073.60;;;;;;5072874;28;19905;-64
2021/04/20 05:04:10;;;;;;;;;;;307.30;2073.60;;;;;;5072883;28;19913;-70
2021/04/20 05:06:42;;;;;;;;;;;307.40;2048.00;;;;;;5072501;28;20031;-64
2021/04/20 05:09:11;;;;;;;;;;;307.60;2022.40;;;;;;5072954;28;19910;-71
2021/04/20 05:11:39;;;;;;;;;;;307.40;2022.40;;;;;;5072502;28;19911;-71
2021/04/20 05:14:05;;;;;;;;;;;307.50;2048.00;;;;;;5072818;28;19913;-70
2021/04/20 05:16:31;;;;;;;;;;;307.50;2022.40;;;;;;5072508;28;20374;-70
2021/04/20 05:19:00;;;;;;;;;;;307.60;2048.00;;;;;;5063524;28;19909;-70
2021/04/20 05:21:25;;;;;;;;;;;307.70;2022.40;;;;;;5045949;28;19918;-67
2021/04/20 05:23:52;;;;;;;;;;;307.60;2048.00;;;;;;5028387;28;19908;-72
2021/04/20 05:26:18;;;;;;;;;;;307.40;2073.60;;;;;;5060521;28;19922;-71
2021/04/20 05:28:43;;;;;;;;;;;307.40;2099.20;;;;;;5067949;28;19909;-73
2021/04/20 05:31:09;;;;;;;;;;;307.30;2099.20;;;;;;5063097;28;20007;-63
2021/04/20 05:33:34;;;;;;;;;;;307.30;2099.20;;;;;;5052038;28;19959;-67
2021/04/20 05:36:04;;;;;;;;;;;307.60;2073.60;;;;;;5052488;28;19914;-70
2021/04/20 05:38:29;;;;;;;;;;;307.30;2099.20;;;;;;5052682;28;19999;-70
2021/04/20 05:40:55;;;;;;;;;;;307.30;2124.80;;;;;;5052319;28;19936;-71
2021/04/20 05:43:20;;;;;;;;;;;307.40;2124.80;;;;;;5052384;28;19916;-70
2021/04/20 05:45:46;;;;;;;;;;;307.60;2099.20;;;;;;5052271;28;19947;-69
2021/04/20 05:48:11;;;;;;;;;;;307.40;2099.20;;;;;;5052593;28;19909;-70
2021/04/20 05:50:37;;;;;;;;;;;307.60;2073.60;;;;;;5064238;28;19995;-71
2021/04/20 05:53:03;;;;;;;;;;;307.60;2073.60;;;;;;5072101;28;19904;-65
2021/04/20 05:55:28;;;;;;;;;;;307.80;2073.60;;;;;;5072251;28;20294;-70
2021/04/20 05:57:54;;;;;;;;;;;307.80;2073.60;;;;;;5076113;28;20346;-70
2021/04/20 06:00:21;;;;;;;;;;;307.70;2073.60;;;;;;5076220;28;19904;-70
2021/04/20 06:02:48;;;;;;;;;;;307.70;2048.00;;;;;;5076319;28;19904;-70
2021/04/20 06:05:15;;;;;;;;;;;307.50;2073.60;;;;;;5076020;28;19928;-70
2021/04/20 06:07:45;;;;;;;;;;;307.90;2048.00;;;;;;5076146;28;20385;-71
2021/04/20 06:10:10;;;;;;;;;;;307.80;2022.40;;;;;;5075840;28;19951;-71
2021/04/20 06:12:36;;;;;;;;;;;307.50;2099.20;;;;;;5075961;28;19943;-64
2021/04/20 06:15:03;;;;;;;;;;;307.80;2073.60;;;;;;5072618;28;20454;-64
2021/04/20 06:17:28;;;;;;;;;;;308.00;2048.00;;;;;;5056085;28;19912;-64
2021/04/20 06:19:55;;;;;;;;;;;307.60;2073.60;;;;;;5055555;28;20298;-74
2021/04/20 06:22:21;;;;;;;;;;;307.80;2073.60;;;;;;5055882;28;19904;-73
2021/04/20 06:24:47;;;;;;;;;;;308.10;2048.00;;;;;;5037229;28;19911;-72
2021/04/20 06:27:13;;;;;;;;;;;308.10;2022.40;;;;;;5055675;28;19904;-73
2021/04/20 06:29:39;;;;;;;;;;;332.80;2048.00;;;;;;5041003;28;20303;-73
2021/04/20 06:32:05;;;;;;;;;;;332.90;2048.00;;;;;;5058524;28;19905;-73
2021/04/20 06:34:31;;;;;;;;;;;;;;;;;;5055260;28;20289;-73
2021/04/20 06:36:56;;;;;;;;;;;333.10;1996.80;;;;;;5055499;28;19905;-73
2021/04/20 06:39:22;;;;;;;;;;;332.80;2048.00;;;;;;5057569;28;20015;-69
2021/04/20 06:41:50;;;;;;;;;;;307.90;2099.20;;;;;;5043785;28;19911;-71
2021/04/20 06:44:18;;;;;;;;;;;307.80;2150.40;;;;;;5055163;28;19908;-70
2021/04/20 06:46:52;;;;;;;;;;;307.90;2124.80;;;;;;5055412;28;19905;-70
2021/04/20 06:49:19;;;;;;;;;;;307.80;2150.40;;;;;;5055761;28;20042;-70
2021/04/20 06:51:48;;;;;;;;;;;307.90;2150.40;;;;;;5055454;28;19904;-70
2021/04/20 06:54:19;;;;;;;;;;;308.10;2124.80;;;;;;5055354;28;20323;-70
2021/04/20 06:57:01;;;;;;;;;;;333.10;2099.20;;;;;;5055150;28;20019;-72
2021/04/20 06:59:27;;;;;;;;;;;;;;;;;;5057063;28;19912;-67
2021/04/20 07:01:53;;;;;;;;;;;;;;;;;;5074163;28;19991;-73
2021/04/20 07:04:19;;;;;;;;;;;;;;;;;;5074172;28;20145;-73
2021/04/20 07:06:45;;;;;;;;;;;;;;;;;;5068724;28;20363;-73
2021/04/20 07:09:11;;;;;;;;;;;;;;;;;;5072183;28;19993;-69
2021/04/20 07:11:37;;;;;;;;;;;;;;;;;;5070592;28;20284;-70
2021/04/20 07:14:03;;;;;;;;;;;358.50;1945.60;;;;;;5072930;28;19912;-66
2021/04/20 07:16:29;;;;;;;;;;;358.50;1945.60;;;;;;5072104;28;19912;-67
2021/04/20 07:18:55;;;;;;;;;;;;;;;;;;5055447;28;20274;-71
2021/04/20 07:21:21;;;;;;;;;;;;;;;;;;5073506;28;20378;-74
2021/04/20 07:23:47;;;;;;;;;;;;;;;;;;5070432;28;19905;-72
2021/04/20 07:26:13;;;;;;;;;;;;;;;;;;5073535;28;19904;-73
2021/04/20 07:28:39;;;;;;;;;;;;;;;;;;5070948;28;19995;-72
2021/04/20 07:31:05;;;;;;;;;;;;;;;;;;5053451;28;19995;-72
2021/04/20 07:33:31;;;;;;;;;;;;;;;;;;5070809;28;19962;-72
2021/04/20 07:35:57;;;;;;;;;;;;;;;;;;5071253;28;19926;-71
2021/04/20 07:38:23;;;;;;;;;;;;;;;;;;5061346;28;19987;-74
2021/04/20 07:40:49;;;;;;;;;;;;;;;;;;5054234;28;19905;-72
2021/04/20 07:43:15;;;;;;;;;;;;;;;;;;5054216;28;19905;-72
2021/04/20 07:45:41;;;;;;;;;;;;;;;;;;5054220;28;19991;-71
2021/04/20 07:48:07;;;;;;;;;;;;;;;;;;5054050;28;19909;-70
2021/04/20 07:50:32;;;;;;;;;;;;;;;;;;5063002;28;19905;-71
2021/04/20 07:52:58;;;;;;;;;;;;;;;;;;5061220;28;19905;-69
2021/04/20 07:55:24;;;;;;;;;;;;;;;;;;5066049;28;19912;-71
2021/04/20 07:57:51;;;;;;;;;;;;;;;;;;5068852;28;19915;-70
2021/04/20 08:00:17;;;;;;;;;;;;;;;;;;5061214;28;19999;-69
2021/04/20 08:02:49;;;;;;;;;;;359.20;1740.80;;;;;;5074117;28;19939;-71
2021/04/20 08:05:35;;;;;;;;;;;359.10;1945.60;;;;;;5046140;28;19916;-65
2021/04/20 08:08:04;;;;;;;;;;;359.10;1740.80;;;;;;5073867;28;19927;-71
2021/04/20 08:10:53;;;;;;;;;;;359.30;1689.60;;;;;;5074018;28;19905;-66
2021/04/20 08:13:21;;;;;;;;;;;359.30;1664.00;;;;;;4972702;28;19906;-71
2021/04/20 08:15:51;;;;;;;;;;;384.00;1664.00;;;;;;4972754;28;20376;-72
2021/04/20 08:18:21;;;;;;;;;;;384.00;1664.00;;;;;;4972331;28;19922;-71
2021/04/20 08:20:47;;;;;;;;;;;384.10;1664.00;;;;;;4972604;28;19910;-71
2021/04/20 08:23:14;;;;;;;;;;;359.30;1664.00;;;;;;4972645;28;19906;-70
2021/04/20 08:25:42;;;;;;;;;;;359.10;1689.60;;;;;;4972529;28;19910;-71
2021/04/20 08:28:25;;;;;;;;;;;359.10;1715.20;;;;;;4972637;28;19910;-64
2021/04/20 08:31:03;;;;;;;;;;;359.20;1715.20;;;;;;4959974;28;19909;-71
2021/04/20 08:33:30;;;;;;;;;;;359.30;1715.20;;;;;;4955830;28;20292;-71
2021/04/20 08:35:57;;;;;;;;;;;359.30;1664.00;;;;;;4972249;28;20049;-68
2021/04/20 08:38:41;;;;;;;;;;;359.20;1689.60;;;;;;4972400;28;19917;-65
2021/04/20 08:41:08;;;;;;;;;;;359.30;1664.00;;;;;;4960299;28;19906;-71
2021/04/20 08:43:37;;;;;;;;;;;384.10;1638.40;;;;;;4972465;28;19916;-71
2021/04/20 08:46:20;;;;;;;;;;;384.30;1587.20;;;;;;4959005;28;19918;-72
2021/04/20 08:49:05;;;;;;;;;;;384.60;1561.60;;;;;;4961873;28;19938;-64
2021/04/20 08:51:36;;;;;;;;;;;384.70;1561.60;;;;;;5071297;28;19955;-71
2021/04/20 08:54:01;;;;;;;;;;;384.90;1561.60;;;;;;5073305;28;19908;-73
2021/04/20 08:56:47;;;;;;;;;;;410.20;1510.40;;;;;;5072861;28;20373;-72
2021/04/20 08:59:13;;;;;;;;;;;410.00;1510.40;;;;;;5055334;28;20063;-71
2021/04/20 09:01:41;;;;;;;;;;;410.10;1536.00;;;;;;5072724;28;19950;-71
2021/04/20 09:04:13;;;;;;;;;;;410.00;1510.40;;;;;;5072896;28;20349;-69
2021/04/20 09:06:50;;;;;;;;;;;409.90;1484.80;;;;;;5054384;28;19927;-71
2021/04/20 09:09:20;;;;;;;;;;;410.10;1484.80;;;;;;5052681;28;19909;-71
2021/04/20 09:11:46;;;;;;;;;;;;;;;;;;5052454;28;19909;-71
2021/04/20 09:14:12;;;;;;;;;;;;;;;;;;5052531;28;19908;-71
2021/04/20 09:16:39;;;;;;;;;;;435.80;1331.20;;;;;;5052510;28;19909;-71
2021/04/20 09:19:05;;;;;;;;;;;;;;;;;;5052857;28;20028;-71
2021/04/20 09:21:30;;;;;;;;;;;;;;;;;;5052754;28;20362;-71
2021/04/20 09:23:56;;;;;;;;;;;;;;;;;;5053079;28;19908;-70
2021/04/20 09:26:22;;;;;;;;;;;;;;;;;;5052463;28;19915;-70
2021/04/20 09:28:48;;;;;;;;;;;;;;;;;;5052189;28;19951;-65
2021/04/20 09:31:16;;;;;;;;;;;;;;;;;;5051594;28;19904;-71
2021/04/20 09:33:42;;;;;;;;;;;;;;;;;;5052210;28;19911;-72
2021/04/20 09:36:08;;;;;;;;;;;;;;;;;;5052618;28;19916;-71
2021/04/20 09:38:34;;;;;;;;;;;;;;;;;;5052553;28;20377;-70
2021/04/20 09:41:00;;;;;;;;;;;435.70;1254.40;;;;;;5052327;28;19904;-72
2021/04/20 09:43:31;;;;;;;;;;;435.50;1280.00;;;;;;5052146;28;19909;-71
2021/04/20 09:46:02;;;;;;;;;;;435.50;1228.80;;;;;;5052061;28;19923;-72
2021/04/20 09:48:30;;;;;;;;;;;435.50;1254.40;;;;;;5052047;28;19905;-71
2021/04/20 09:51:07;;;;;;;;;;;435.50;1254.40;;;;;;5066895;28;20003;-71
2021/04/20 09:53:42;;;;;;;;;;;435.50;1254.40;;;;;;5072517;28;19947;-70
2021/04/20 09:56:26;;;;;;;;;;;435.40;1280.00;;;;;;5071867;28;19975;-72
2021/04/20 09:58:52;;;;;;;;;;;435.40;1280.00;;;;;;5072587;28;19904;-71
2021/04/20 10:01:24;;;;;;;;;;;435.30;1254.40;;;;;;5072270;28;19908;-72
2021/04/20 10:03:50;;;;;;;;;;;435.40;1254.40;;;;;;5072116;28;20353;-69
2021/04/20 10:06:15;;;;;;;;;;;435.60;1254.40;;;;;;5050737;28;19924;-71
2021/04/20 10:08:41;;;;;;;;;;;;;;;;;;5051968;28;19915;-70
2021/04/20 10:11:07;;;;;;;;;;;;;;;;;;5052218;28;19991;-71
2021/04/20 10:13:35;;;;;;;;;;;;;;;;;;5051887;28;20008;-72
2021/04/20 10:16:01;;;;;;;;;;;;;;;;;;5052039;28;19916;-72
2021/04/20 10:18:27;;;;;;;;;;;;;;;;;;5052391;28;19913;-71
2021/04/20 10:20:58;;;;;;;;;;;461.40;1126.40;;;;;;5052092;28;20317;-72
2021/04/20 10:23:50;;;;;;;;;;;461.50;1152.00;;;;;;5051854;28;20000;-71
2021/04/20 10:26:16;;;;;;;;;;;;;;;;;;5021428;28;19932;-72
2021/04/20 10:28:44;;;;;;;;;;;486.80;1075.20;;;;;;5051838;28;19905;-71
2021/04/20 10:31:31;;;;;;;;;;;486.80;1075.20;;;;;;5051918;28;19912;-71
2021/04/20 10:33:57;;;;;;;;;;;487.30;1049.60;;;;;;5051503;28;19905;-71
2021/04/20 10:36:23;;;;;;;;;;;;;;;;;;5052110;28;19919;-72
2021/04/20 10:38:51;;;;;;;;;;;;;;;;;;5051968;28;19996;-70
2021/04/20 10:41:17;;;;;;;;;;;;;;;;;;5051958;28;19912;-71
2021/04/20 10:43:43;;;;;;;;;;;;;;;;;;5055069;28;19987;-71
2021/04/20 10:46:08;;;;;;;;;;;;;;;;;;5055415;28;19912;-69
2021/04/20 10:48:34;;;;;;;;;;;;;;;;;;5046239;28;19959;-71
2021/04/20 10:51:01;;;;;;;;;;;512.40;947.20;;;;;;5050295;28;19905;-71
2021/04/20 10:53:30;;;;;;;;;;;512.00;972.80;;;;;;5055326;28;19912;-71
2021/04/20 10:56:01;;;;;;;;;;;512.00;998.40;;;;;;5055061;28;19967;-71
2021/04/20 10:58:27;;;;;;;;;;;;;;;;;;5028158;28;19911;-71
2021/04/20 11:00:53;;;;;;;;;;;512.10;1075.20;;;;;;5055603;28;19905;-71
2021/04/20 11:03:20;;;;;;;;;;;512.00;1075.20;;;;;;5054816;28;19909;-71
2021/04/20 11:05:47;;;;;;;;;;;487.00;1049.60;;;;;;5065764;28;20425;-72
2021/04/20 11:08:21;;;;;;;;;;;487.00;1075.20;;;;;;5074810;28;20313;-72
2021/04/20 11:10:46;;;;;;;;;;;486.40;1126.40;;;;;;5074995;28;19904;-71
2021/04/20 11:13:12;;;;;;;;;;;486.40;1152.00;;;;;;5074499;28;20326;-71
2021/04/20 11:15:38;;;;;;;;;;;486.50;1177.60;;;;;;5074777;28;19920;-68
2021/04/20 11:18:04;;;;;;;;;;;;;;;;;;5074746;28;19943;-70
2021/04/20 11:20:29;;;;;;;;;;;;;;;;;;5074816;28;20381;-70
2021/04/20 11:23:10;;;;;;;;;;;487.10;1203.20;;;;;;5074760;28;19927;-70
2021/04/20 11:25:58;;;;;;;;;;;487.20;1177.60;;;;;;5074978;28;20046;-67
2021/04/20 11:28:29;;;;;;;;;;;537.70;1100.80;;;;;;5074327;28;19905;-71
2021/04/20 11:30:57;;;;;;;;;;;512.90;1049.60;;;;;;5074558;28;20359;-71
2021/04/20 11:33:38;;;;;;;;;;;537.70;1049.60;;;;;;5074697;28;19912;-72
2021/04/20 11:36:08;;;;;;;;;;;512.80;1024.00;;;;;;5050047;28;19978;-69
2021/04/20 11:38:43;;;;;;;;;;;512.20;1100.80;;;;;;5074247;28;19908;-70
2021/04/20 11:41:09;;;;;;;;;;;487.20;1152.00;;;;;;5074202;28;20429;-71
2021/04/20 11:43:35;;;;;;;;;;;487.00;1152.00;;;;;;5074164;28;19955;-71
2021/04/20 11:46:01;;;;;;;;;;;486.80;1177.60;;;;;;5074124;28;19912;-71
2021/04/20 11:48:32;;;;;;;;;;;486.70;1177.60;;;;;;5066275;28;19905;-71
2021/04/20 11:50:59;;;;;;;;;;;461.70;1203.20;;;;;;5050835;28;19904;-71
2021/04/20 11:53:25;;;;;;;;;;;461.50;1254.40;;;;;;5073303;28;19905;-71
2021/04/20 11:55:55;;;;;;;;;;;461.40;1280.00;;;;;;5074279;28;19964;-71
2021/04/20 11:58:31;;;;;;;;;;;461.40;1305.60;;;;;;5073806;28;19904;-72
2021/04/20 12:01:09;;;;;;;;;;;461.20;1356.80;;;;;;5073821;28;19908;-70
2021/04/20 12:03:35;;;;;;;;;;;;;;;;;;5046815;28;20365;-71
2021/04/20 12:06:01;;;;;;;;;;;;;;;;;;5073657;28;19921;-72
2021/04/20 12:08:27;;;;;;;;;;;;;;;;;;5073922;28;19908;-70
2021/04/20 12:10:53;;;;;;;;;;;;;;;;;;5073842;28;19908;-71
2021/04/20 12:13:18;;;;;;;;;;;;;;;;;;5073774;28;19966;-69
2021/04/20 12:15:44;;;;;;;;;;;;;;;;;;5073610;28;20430;-71
2021/04/20 12:18:10;;;;;;;;;;;410.30;1484.80;;;;;;5073511;28;19990;-71
2021/04/20 12:20:36;;;;;;;;;;;410.30;1587.20;;;;;;5073520;28;20002;-69
2021/04/20 12:23:02;;;;;;;;;;;435.30;1561.60;;;;;;5073415;28;19955;-72
2021/04/20 12:25:28;;;;;;;;;;;435.30;1587.20;;;;;;5073695;28;20270;-72
2021/04/20 12:27:58;;;;;;;;;;;435.50;1638.40;;;;;;5073344;28;20325;-71
2021/04/20 12:30:24;;;;;;;;;;;;;;;;;;5073272;28;19908;-72
2021/04/20 12:32:50;;;;;;;;;;;;;;;;;;5073376;28;20019;-71
2021/04/20 12:35:24;;;;;;;;;;;460.90;1459.20;;;;;;5073402;28;19920;-72
2021/04/20 12:37:53;;;;;;;;;;;461.10;1561.60;;;;;;5073031;28;19916;-71
2021/04/20 12:40:21;;;;;;;;;;;461.40;1510.40;;;;;;5073401;28;20393;-72
2021/04/20 12:42:48;;;;;;;;;;;486.40;1433.60;;;;;;5072912;28;20383;-72
2021/04/20 12:45:16;;;;;;;;;;;486.70;1356.80;;;;;;5073149;28;20266;-71
2021/04/20 12:47:42;;;;;;;;;;;486.90;1254.40;;;;;;5071226;28;19904;-72
2021/04/20 12:50:10;;;;;;;;;;;487.10;1228.80;;;;;;5060773;28;20270;-69
2021/04/20 12:52:39;;;;;;;;;;;487.30;1152.00;;;;;;5064667;28;20146;-70
2021/04/20 12:55:05;;;;;;;;;;;;;;;;;;5052837;28;19912;-71
2021/04/20 12:57:30;;;;;;;;;;;;;;;;;;5053108;28;19911;-72
2021/04/20 12:59:56;;;;;;;;;;;;;;;;;;5071487;28;19916;-72
2021/04/20 13:02:22;;;;;;;;;;;;;;;;;;5054854;28;20282;-71
2021/04/20 13:04:48;;;;;;;;;;;;;;;;;;5072309;28;19923;-70
2021/04/20 13:07:14;;;;;;;;;;;;;;;;;;5054710;28;20325;-71
2021/04/20 13:09:40;;;;;;;;;;;;;;;;;;5072488;28;20360;-71
2021/04/20 13:12:06;;;;;;;;;;;;;;;;;;5072694;28;19915;-69
2021/04/20 13:14:32;;;;;;;;;;;;;;;;;;5072440;28;19908;-70
2021/04/20 13:16:58;;;;;;;;;;;;;;;;;;5072527;28;20273;-70
2021/04/20 13:19:24;;;;;;;;;;;;;;;;;;5072951;28;19904;-71
2021/04/20 13:21:50;;;;;;;;;;;;;;;;;;5072339;28;19908;-70
2021/04/20 13:24:16;;;;;;;;;;;;;;;;;;5072843;28;19905;-71
2021/04/20 13:26:41;;;;;;;;;;;;;;;;;;5072473;28;19904;-70
2021/04/20 13:29:07;;;;;;;;;;;;;;;;;;5072739;28;19955;-71
2021/04/20 13:31:35;;;;;;;;;;;512.70;1049.60;;;;;;5072612;28;19912;-70
2021/04/20 13:34:02;;;;;;;;;;;512.50;1049.60;;;;;;5072244;28;20364;-71
2021/04/20 13:36:29;;;;;;;;;;;512.60;1049.60;;;;;;5072498;28;19943;-70
2021/04/20 13:38:58;;;;;;;;;;;512.90;1049.60;;;;;;5072406;28;19904;-71
2021/04/20 13:41:25;;;;;;;;;;;512.50;1049.60;;;;;;5072514;28;19981;-73
2021/04/20 13:43:52;;;;;;;;;;;512.10;1024.00;;;;;;5070164;28;19975;-71
2021/04/20 13:46:18;;;;;;;;;;;487.10;1049.60;;;;;;5052426;28;19909;-71
2021/04/20 13:48:43;;;;;;;;;;;486.90;1075.20;;;;;;5052701;28;19905;-71
2021/04/20 13:51:09;;;;;;;;;;;486.70;1126.40;;;;;;5068215;28;20373;-71
2021/04/20 13:53:37;;;;;;;;;;;486.60;1126.40;;;;;;5072328;28;19946;-71
2021/04/20 13:56:03;;;;;;;;;;;;;;;;;;5072102;28;19958;-71
2021/04/20 13:58:30;;;;;;;;;;;461.60;1228.80;;;;;;5056659;28;19909;-71
2021/04/20 14:00:57;;;;;;;;;;;461.50;1280.00;;;;;;5050930;28;20039;-68
2021/04/20 14:03:23;;;;;;;;;;;;;;;;;;5051455;28;19904;-70
2021/04/20 14:05:49;;;;;;;;;;;;;;;;;;5051158;28;19916;-67
2021/04/20 14:08:15;;;;;;;;;;;;;;;;;;5066204;28;20011;-70
2021/04/20 14:10:41;;;;;;;;;;;;;;;;;;5062533;28;19923;-71
2021/04/20 14:13:07;;;;;;;;;;;;;;;;;;5051390;28;20393;-71
2021/04/20 14:15:33;;;;;;;;;;;;;;;;;;5051277;28;20000;-69
2021/04/20 14:17:59;;;;;;;;;;;;;;;;;;5053643;28;19908;-71
2021/04/20 14:20:26;;;;;;;;;;;;;;;;;;5054835;28;19913;-63